Time;durP1;ratioP1;P1;durP2;ratioP2;P2;SDS_P1;SDS_P2;PMS_P1;PMS_P2;Temp;Humidity;BMP_temperature;BMP_pressure;BME280_temperature;BME280_humidity;BME280_pressure;Samples;Min_cycle;Max_cycle;Signal;HPM_P1;HPM_P2
2020/12/24 00:01:52;;;;;;;168.60;97.93;;;8.30;99.90;;;;;;5051488;28;20025;-76
2020/12/24 00:04:18;;;;;;;173.70;98.10;;;8.30;99.90;;;;;;5051319;28;20032;-76
2020/12/24 00:06:43;;;;;;;176.98;101.28;;;8.10;99.90;;;;;;5051240;28;20029;-76
2020/12/24 00:09:09;;;;;;;190.40;105.68;;;8.20;99.90;;;;;;5050950;28;20488;-76
2020/12/24 00:11:35;;;;;;;203.60;115.57;;;8.30;99.90;;;;;;5049843;28;20031;-76
2020/12/24 00:14:01;;;;;;;190.90;107.45;;;8.10;99.90;;;;;;5051253;28;20075;-76
2020/12/24 00:16:27;;;;;;;245.40;113.90;;;8.00;99.90;;;;;;5051341;28;20048;-76
2020/12/24 00:18:52;;;;;;;218.85;125.55;;;8.00;99.90;;;;;;5051709;28;20470;-77
2020/12/24 00:21:18;;;;;;;215.57;124.75;;;7.90;99.90;;;;;;5050960;28;20032;-78
2020/12/24 00:23:44;;;;;;;228.02;129.25;;;7.80;99.90;;;;;;5052534;28;20041;-78
2020/12/24 00:26:10;;;;;;;226.25;129.82;;;7.90;99.90;;;;;;5052140;28;20369;-77
2020/12/24 00:28:36;;;;;;;215.30;125.05;;;7.90;99.90;;;;;;5050869;28;20043;-77
2020/12/24 00:31:02;;;;;;;236.93;133.10;;;7.90;99.90;;;;;;5052173;28;20076;-77
2020/12/24 00:33:28;;;;;;;233.13;131.00;;;7.90;99.90;;;;;;5051953;28;20025;-77
2020/12/24 00:35:54;;;;;;;226.50;129.45;;;7.80;99.90;;;;;;5051868;28;20029;-77
2020/12/24 00:38:20;;;;;;;214.70;122.80;;;7.70;99.90;;;;;;5051822;28;20056;-77
2020/12/24 00:40:46;;;;;;;219.20;125.35;;;7.80;99.90;;;;;;5050620;28;20029;-77
2020/12/24 00:43:11;;;;;;;220.43;125.72;;;7.60;99.90;;;;;;5051879;28;20021;-76
2020/12/24 00:45:37;;;;;;;224.80;128.10;;;7.60;99.90;;;;;;5050343;28;20060;-77
2020/12/24 00:48:03;;;;;;;207.73;119.75;;;7.60;99.90;;;;;;5052047;28;20017;-77
2020/12/24 00:50:29;;;;;;;207.38;119.70;;;7.70;99.90;;;;;;5051882;28;20025;-76
2020/12/24 00:52:55;;;;;;;162.18;99.20;;;7.70;99.90;;;;;;5050294;28;20029;-76
2020/12/24 00:55:21;;;;;;;153.20;93.00;;;7.70;99.90;;;;;;5051888;28;20066;-77
2020/12/24 00:57:47;;;;;;;173.45;104.60;;;7.70;99.90;;;;;;5055536;28;20045;-77
2020/12/24 01:00:12;;;;;;;176.23;100.00;;;7.70;99.90;;;;;;5055621;28;20036;-77
2020/12/24 01:02:38;;;;;;;164.88;93.35;;;7.60;99.90;;;;;;5054527;28;20021;-78
2020/12/24 01:05:06;;;;;;;169.07;93.28;;;7.60;99.90;;;;;;5055576;28;20379;-77
2020/12/24 01:07:32;;;;;;;147.77;85.18;;;7.60;99.90;;;;;;5054320;28;20033;-77
2020/12/24 01:09:58;;;;;;;130.95;73.60;;;7.60;99.90;;;;;;5054858;28;20104;-76
2020/12/24 01:12:24;;;;;;;97.18;58.47;;;7.50;99.90;;;;;;5054325;28;20096;-76
2020/12/24 01:14:49;;;;;;;73.10;46.03;;;7.50;99.90;;;;;;5069947;28;20064;-76
2020/12/24 01:17:15;;;;;;;69.18;43.95;;;7.60;99.90;;;;;;5054674;28;20040;-76
2020/12/24 01:19:41;;;;;;;60.92;41.83;;;7.70;99.90;;;;;;5054538;28;20029;-76
2020/12/24 01:22:07;;;;;;;78.38;47.92;;;7.70;99.90;;;;;;5054254;28;20484;-76
2020/12/24 01:24:33;;;;;;;76.78;49.05;;;7.60;99.90;;;;;;5054349;28;20033;-76
2020/12/24 01:26:58;;;;;;;75.30;46.58;;;7.60;99.90;;;;;;5053962;28;20027;-76
2020/12/24 01:29:25;;;;;;;97.50;46.53;;;7.60;99.90;;;;;;5052739;28;20036;-77
2020/12/24 01:31:51;;;;;;;63.75;39.88;;;7.60;99.90;;;;;;5054899;28;20027;-77
2020/12/24 01:34:20;;;;;;;73.68;44.10;;;7.60;99.90;;;;;;5053237;28;20108;-76
2020/12/24 01:36:46;;;;;;;68.45;43.63;;;7.60;99.90;;;;;;5054773;28;20035;-77
2020/12/24 01:39:12;;;;;;;70.85;44.17;;;7.60;99.90;;;;;;5054946;28;20079;-77
2020/12/24 01:41:39;;;;;;;76.90;45.35;;;7.60;99.90;;;;;;5054933;28;20033;-77
2020/12/24 01:44:05;;;;;;;73.28;42.80;;;7.60;99.90;;;;;;5053725;28;20443;-78
2020/12/24 01:46:31;;;;;;;72.72;41.65;;;7.60;99.90;;;;;;5055065;28;20468;-77
2020/12/24 01:48:57;;;;;;;63.20;39.58;;;7.60;99.90;;;;;;5054446;28;20025;-76
2020/12/24 01:51:28;;;;;;;65.80;39.95;;;7.50;99.90;;;;;;5053799;28;20480;-76
2020/12/24 01:53:56;;;;;;;65.80;41.15;;;7.50;99.90;;;;;;5053795;28;20096;-76
2020/12/24 01:56:22;;;;;;;70.03;41.67;;;7.50;99.90;;;;;;5053809;28;20029;-76
2020/12/24 01:58:50;;;;;;;67.72;41.65;;;7.50;99.90;;;;;;5053751;28;20526;-76
2020/12/24 02:01:16;;;;;;;61.17;38.05;;;7.50;99.90;;;;;;5053792;28;20388;-78
2020/12/24 02:03:41;;;;;;;60.05;36.88;;;7.60;99.90;;;;;;5053266;28;20079;-78
2020/12/24 02:06:07;;;;;;;57.95;37.33;;;7.60;99.90;;;;;;5053251;28;20032;-78
2020/12/24 02:08:33;;;;;;;53.97;35.03;;;7.60;99.90;;;;;;5052573;28;20108;-77
2020/12/24 02:11:00;;;;;;;55.90;35.92;;;7.60;99.90;;;;;;5054372;28;20021;-77
2020/12/24 02:13:26;;;;;;;52.65;33.85;;;7.60;99.90;;;;;;5054257;28;20029;-77
2020/12/24 02:15:52;;;;;;;57.45;35.78;;;7.70;99.90;;;;;;5054134;28;20028;-77
2020/12/24 02:18:18;;;;;;;49.80;33.33;;;7.60;99.90;;;;;;5054039;28;20472;-77
2020/12/24 02:20:44;;;;;;;50.72;33.28;;;7.70;99.90;;;;;;5069569;28;20171;-77
2020/12/24 02:23:11;;;;;;;50.28;32.03;;;7.60;99.90;;;;;;5053840;28;20052;-77
2020/12/24 02:25:37;;;;;;;55.40;33.95;;;7.60;99.90;;;;;;5052681;28;20033;-77
2020/12/24 02:28:04;;;;;;;54.33;32.45;;;7.60;99.90;;;;;;5053829;28;20045;-77
2020/12/24 02:30:30;;;;;;;71.20;36.92;;;7.70;99.90;;;;;;5053884;28;20025;-77
2020/12/24 02:32:56;;;;;;;64.30;33.83;;;7.60;99.90;;;;;;5054400;28;20173;-78
2020/12/24 02:35:22;;;;;;;66.72;33.17;;;7.70;99.90;;;;;;5054519;28;20112;-78
2020/12/24 02:37:47;;;;;;;59.10;31.08;;;7.70;99.90;;;;;;5054148;28;20380;-77
2020/12/24 02:40:13;;;;;;;46.13;28.15;;;7.70;99.90;;;;;;5052749;28;20040;-78
2020/12/24 02:42:39;;;;;;;34.42;21.75;;;7.70;99.90;;;;;;5054210;28;20039;-77
2020/12/24 02:45:06;;;;;;;32.10;21.42;;;7.80;99.90;;;;;;5053922;28;20476;-77
2020/12/24 02:47:36;;;;;;;30.88;21.88;;;7.80;99.90;;;;;;5053822;28;20100;-77
2020/12/24 02:50:04;;;;;;;30.45;18.92;;;7.80;99.90;;;;;;5053870;28;20498;-77
2020/12/24 02:52:30;;;;;;;25.13;16.27;;;7.80;99.90;;;;;;5054014;28;20052;-78
2020/12/24 02:54:56;;;;;;;25.60;16.13;;;7.90;99.90;;;;;;5052849;28;20086;-78
2020/12/24 02:57:22;;;;;;;23.35;16.33;;;7.90;99.90;;;;;;5053841;28;20032;-78
2020/12/24 02:59:48;;;;;;;26.75;16.55;;;7.90;99.90;;;;;;5053434;28;20033;-77
2020/12/24 03:02:13;;;;;;;22.88;15.75;;;7.90;99.90;;;;;;5051847;28;20154;-77
2020/12/24 03:04:39;;;;;;;24.65;16.42;;;7.90;99.90;;;;;;5053011;28;20437;-77
2020/12/24 03:07:05;;;;;;;21.75;14.45;;;7.90;99.90;;;;;;5053057;28;20024;-77
2020/12/24 03:09:31;;;;;;;26.58;16.92;;;7.90;99.90;;;;;;5053562;28;20021;-77
2020/12/24 03:11:56;;;;;;;33.88;16.40;;;8.00;99.90;;;;;;5053397;28;20025;-78
2020/12/24 03:14:22;;;;;;;26.75;17.15;;;7.90;99.90;;;;;;5068802;28;20115;-78
2020/12/24 03:16:48;;;;;;;49.10;17.15;;;8.00;99.90;;;;;;5053156;28;20028;-78
2020/12/24 03:19:14;;;;;;;27.23;16.92;;;7.90;99.90;;;;;;5050970;28;20131;-77
2020/12/24 03:21:40;;;;;;;26.52;16.90;;;8.00;99.90;;;;;;5051713;28;20033;-78
2020/12/24 03:24:07;;;;;;;25.88;16.80;;;8.00;99.90;;;;;;5051531;28;20061;-77
2020/12/24 03:26:33;;;;;;;22.27;15.45;;;8.00;99.90;;;;;;5052710;28;20056;-77
2020/12/24 03:28:59;;;;;;;24.73;16.02;;;8.00;99.90;;;;;;5053289;28;20476;-78
2020/12/24 03:31:26;;;;;;;26.38;16.40;;;7.90;99.90;;;;;;5051840;28;20024;-78
2020/12/24 03:33:54;;;;;;;26.60;17.35;;;7.90;99.90;;;;;;5052120;28;20017;-78
2020/12/24 03:36:19;;;;;;;27.05;18.13;;;7.80;99.90;;;;;;5052974;28;20024;-78
2020/12/24 03:38:45;;;;;;;29.23;20.10;;;7.80;99.90;;;;;;5053323;28;20571;-78
2020/12/24 03:41:11;;;;;;;54.97;32.30;;;7.80;99.90;;;;;;5053012;28;20472;-78
2020/12/24 03:43:37;;;;;;;69.82;38.67;;;7.90;99.90;;;;;;5053213;28;20472;-78
2020/12/24 03:46:03;;;;;;;53.92;32.97;;;7.80;99.90;;;;;;5051475;28;20040;-78
2020/12/24 03:48:29;;;;;;;33.15;20.95;;;7.80;99.90;;;;;;5052852;28;20013;-78
2020/12/24 03:50:55;;;;;;;26.13;17.05;;;7.80;99.90;;;;;;5052990;28;20025;-78
2020/12/24 03:53:21;;;;;;;27.15;16.63;;;7.80;99.90;;;;;;5051584;28;20017;-78
2020/12/24 03:55:47;;;;;;;30.52;18.95;;;7.80;99.90;;;;;;5051634;28;20060;-78
2020/12/24 03:58:13;;;;;;;31.23;18.02;;;7.70;99.90;;;;;;5052345;28;20028;-76
2020/12/24 04:00:39;;;;;;;30.08;16.73;;;7.70;99.90;;;;;;5051971;28;20025;-77
2020/12/24 04:03:06;;;;;;;23.45;14.88;;;7.70;99.90;;;;;;5052079;28;20108;-77
2020/12/24 04:05:32;;;;;;;24.05;15.32;;;7.80;99.90;;;;;;5051758;28;20021;-77
2020/12/24 04:07:58;;;;;;;24.08;14.15;;;7.80;99.90;;;;;;5067614;28;20107;-77
2020/12/24 04:10:24;;;;;;;18.95;12.93;;;7.80;99.90;;;;;;5051982;28;20100;-77
2020/12/24 04:12:49;;;;;;;19.17;12.38;;;7.80;99.90;;;;;;5068069;28;20032;-77
2020/12/24 04:15:15;;;;;;;24.23;12.75;;;7.90;99.90;;;;;;5052056;28;20079;-77
2020/12/24 04:17:41;;;;;;;17.13;11.75;;;7.90;99.90;;;;;;5052008;28;20040;-77
2020/12/24 04:20:07;;;;;;;21.35;12.02;;;7.90;99.90;;;;;;5052418;28;20013;-78
2020/12/24 04:22:33;;;;;;;19.42;12.55;;;8.00;99.90;;;;;;5052643;28;20041;-78
2020/12/24 04:24:59;;;;;;;18.08;11.00;;;8.00;99.90;;;;;;5052129;28;20033;-77
2020/12/24 04:27:25;;;;;;;17.80;11.70;;;8.00;99.90;;;;;;5050665;28;20392;-77
2020/12/24 04:29:51;;;;;;;17.85;11.30;;;8.00;99.90;;;;;;5052185;28;20025;-77
2020/12/24 04:32:17;;;;;;;20.95;12.02;;;8.10;99.90;;;;;;5055595;28;20017;-76
2020/12/24 04:34:43;;;;;;;25.38;14.60;;;8.10;99.90;;;;;;5070478;28;20487;-77
2020/12/24 04:37:09;;;;;;;29.13;16.27;;;8.10;99.90;;;;;;5054970;28;20041;-76
2020/12/24 04:39:34;;;;;;;31.13;17.80;;;8.20;99.90;;;;;;5055475;28;20037;-76
2020/12/24 04:42:00;;;;;;;27.67;17.25;;;8.20;99.90;;;;;;5055087;28;20476;-76
2020/12/24 04:44:27;;;;;;;31.13;17.52;;;8.20;99.90;;;;;;5054974;28;20029;-77
2020/12/24 04:46:56;;;;;;;25.88;15.43;;;8.20;99.90;;;;;;5055524;28;20131;-77
2020/12/24 04:49:25;;;;;;;23.80;14.95;;;8.20;99.90;;;;;;5070801;28;20025;-77
2020/12/24 04:51:51;;;;;;;28.30;14.95;;;8.10;99.90;;;;;;5055676;28;20148;-76
2020/12/24 04:54:17;;;;;;;49.92;16.10;;;8.20;99.90;;;;;;5055546;28;20039;-76
2020/12/24 04:56:43;;;;;;;162.75;21.75;;;8.20;99.90;;;;;;5055168;28;20124;-77
2020/12/24 04:59:09;;;;;;;28.48;16.52;;;8.10;99.90;;;;;;5054231;28;20025;-77
2020/12/24 05:01:35;;;;;;;26.67;12.85;;;8.10;99.90;;;;;;5055153;28;20508;-77
2020/12/24 05:04:01;;;;;;;21.38;10.82;;;8.10;99.90;;;;;;5055826;28;20075;-77
2020/12/24 05:06:27;;;;;;;15.25;10.15;;;8.10;99.90;;;;;;5055767;28;20048;-77
2020/12/24 05:08:54;;;;;;;17.40;9.30;;;8.10;99.90;;;;;;5055716;28;20452;-77
2020/12/24 05:11:30;;;;;;;12.82;8.13;;;8.10;99.90;;;;;;5055303;28;20146;-77
2020/12/24 05:13:57;;;;;;;12.40;8.35;;;8.10;99.90;;;;;;5055699;28;20071;-77
2020/12/24 05:16:23;;;;;;;9.80;6.78;;;8.00;99.90;;;;;;5055259;28;20526;-77
2020/12/24 05:18:49;;;;;;;10.32;7.55;;;8.10;99.90;;;;;;5055158;28;20025;-77
2020/12/24 05:21:33;;;;;;;10.38;7.18;;;8.00;99.90;;;;;;5055239;28;20544;-77
2020/12/24 05:23:59;;;;;;;10.38;6.95;;;8.00;99.90;;;;;;5055138;28;20041;-77
2020/12/24 05:26:25;;;;;;;12.50;7.68;;;8.00;99.90;;;;;;5055393;28;20464;-78
2020/12/24 05:28:50;;;;;;;11.27;7.28;;;8.10;99.90;;;;;;5055483;28;20017;-78
2020/12/24 05:31:34;;;;;;;11.15;5.85;;;8.10;99.90;;;;;;5055803;28;20025;-78
2020/12/24 05:33:59;;;;;;;22.48;15.68;;;8.10;99.90;;;;;;5055706;28;20021;-78
2020/12/24 05:36:25;;;;;;;23.48;17.52;;;8.10;99.90;;;;;;5054990;28;20048;-77
2020/12/24 05:38:52;;;;;;;26.38;16.17;;;8.10;99.90;;;;;;5054907;28;20029;-78
2020/12/24 05:41:30;;;;;;;24.92;15.80;;;8.10;99.90;;;;;;5054835;28;20033;-77
2020/12/24 05:44:16;;;;;;;33.47;17.60;;;8.00;99.90;;;;;;5054307;28;20142;-78
2020/12/24 05:46:42;;;;;;;31.23;17.40;;;8.00;99.90;;;;;;5054584;28;20154;-77
2020/12/24 05:49:15;;;;;;;24.90;14.85;;;8.00;99.90;;;;;;5054752;28;20031;-78
2020/12/24 05:51:49;;;;;;;29.27;15.70;;;8.00;99.90;;;;;;5054743;28;20070;-78
2020/12/24 05:54:17;;;;;;;44.22;24.90;;;8.00;99.90;;;;;;5053198;28;20025;-77
2020/12/24 05:56:44;;;;;;;33.55;19.95;;;8.00;99.90;;;;;;5054092;28;20036;-77
2020/12/24 05:59:15;;;;;;;25.88;16.30;;;8.00;99.90;;;;;;5052689;28;20120;-77
2020/12/24 06:02:08;;;;;;;27.00;16.45;;;8.00;99.90;;;;;;5054077;28;20036;-77
2020/12/24 06:04:45;;;;;;;22.42;13.43;;;8.10;99.90;;;;;;5042091;28;20064;-77
2020/12/24 06:07:15;;;;;;;18.13;11.60;;;8.10;99.90;;;;;;5053857;28;20025;-77
2020/12/24 06:09:42;;;;;;;24.07;14.73;;;8.10;99.90;;;;;;5054122;28;20032;-77
2020/12/24 06:12:25;;;;;;;25.65;15.50;;;8.00;99.90;;;;;;5053872;28;20025;-77
2020/12/24 06:15:00;;;;;;;30.50;18.63;;;8.00;99.90;;;;;;5054741;28;20025;-77
2020/12/24 06:17:28;;;;;;;38.90;23.95;;;8.00;99.90;;;;;;5054787;28;20112;-77
2020/12/24 06:19:54;;;;;;;51.50;30.02;;;7.90;99.90;;;;;;5054603;28;20079;-77
2020/12/24 06:22:21;;;;;;;43.38;29.52;;;7.90;99.90;;;;;;5054165;28;20040;-77
2020/12/24 06:24:55;;;;;;;43.85;29.05;;;8.00;99.90;;;;;;5053929;28;20037;-77
2020/12/24 06:27:31;;;;;;;38.65;26.30;;;7.90;99.90;;;;;;5054089;28;20043;-77
2020/12/24 06:30:06;;;;;;;40.30;27.00;;;7.90;99.90;;;;;;5054140;28;20496;-78
2020/12/24 06:32:40;;;;;;;48.08;29.10;;;7.90;99.90;;;;;;5069786;28;20036;-77
2020/12/24 06:35:07;;;;;;;48.05;28.80;;;7.90;99.90;;;;;;5053754;28;20025;-77
2020/12/24 06:37:40;;;;;;;58.28;34.15;;;7.90;99.90;;;;;;5054301;28;20028;-77
2020/12/24 06:40:07;;;;;;;80.70;40.20;;;7.90;99.90;;;;;;5069444;28;20483;-76
2020/12/24 06:42:36;;;;;;;94.35;46.75;;;7.90;99.90;;;;;;5053612;28;20029;-77
2020/12/24 06:45:13;;;;;;;66.05;36.58;;;7.90;99.90;;;;;;5053496;28;20047;-77
2020/12/24 06:47:40;;;;;;;75.95;40.85;;;8.00;99.90;;;;;;5053674;28;20029;-78
2020/12/24 06:50:45;;;;;;;54.50;32.20;;;8.00;99.90;;;;;;5054036;28;20036;-78
2020/12/24 06:53:27;;;;;;;53.28;33.65;;;8.10;99.90;;;;;;5053728;28;20067;-78
2020/12/24 06:56:15;;;;;;;64.15;38.78;;;8.10;99.90;;;;;;5054017;28;20028;-78
2020/12/24 06:58:43;;;;;;;67.57;41.28;;;8.10;99.90;;;;;;5053660;28;20036;-78
2020/12/24 07:01:21;;;;;;;96.38;56.90;;;8.10;99.90;;;;;;5053191;28;20100;-76
2020/12/24 07:03:48;;;;;;;142.75;78.78;;;8.10;99.90;;;;;;5052797;28;20455;-77
2020/12/24 07:06:40;;;;;;;132.55;72.95;;;8.10;99.90;;;;;;5052590;28;20395;-77
2020/12/24 07:09:10;;;;;;;121.05;70.80;;;8.10;99.90;;;;;;5052435;28;20028;-77
2020/12/24 07:11:52;;;;;;;106.60;61.53;;;8.10;99.90;;;;;;5052981;28;20021;-76
2020/12/24 07:14:34;;;;;;;92.75;54.38;;;8.10;99.90;;;;;;5052635;28;20028;-76
2020/12/24 07:17:18;;;;;;;85.88;52.92;;;8.10;99.90;;;;;;5051038;28;20155;-76
2020/12/24 07:19:47;;;;;;;89.75;55.55;;;8.20;99.90;;;;;;5050918;28;20437;-76
2020/12/24 07:22:19;;;;;;;95.35;59.08;;;8.20;99.90;;;;;;5051938;28;20536;-76
2020/12/24 07:25:00;;;;;;;121.93;73.22;;;8.20;99.90;;;;;;5052221;28;20349;-76
2020/12/24 07:27:26;;;;;;;171.55;104.63;;;8.30;99.90;;;;;;5051780;28;20029;-76
2020/12/24 07:29:52;;;;;;;158.73;92.90;;;8.30;99.90;;;;;;5052374;28;20070;-76
2020/12/24 07:32:20;;;;;;;148.80;91.07;;;8.40;99.90;;;;;;5052221;28;20648;-76
2020/12/24 07:34:46;;;;;;;147.23;89.55;;;8.40;99.90;;;;;;5051899;28;20056;-77
2020/12/24 07:37:12;;;;;;;136.43;80.78;;;8.50;99.90;;;;;;5052530;28;20108;-77
2020/12/24 07:39:38;;;;;;;116.43;72.80;;;8.50;99.90;;;;;;5052414;28;20511;-76
2020/12/24 07:42:03;;;;;;;116.43;75.30;;;8.50;99.90;;;;;;5050554;28;20599;-76
2020/12/24 07:44:29;;;;;;;91.45;63.50;;;8.60;99.90;;;;;;5052199;28;20029;-77
2020/12/24 07:47:03;;;;;;;94.75;62.08;;;8.60;99.90;;;;;;5051821;28;20040;-77
2020/12/24 07:49:29;;;;;;;111.47;74.45;;;8.60;99.90;;;;;;5051946;28;20048;-76
2020/12/24 07:51:56;;;;;;;104.82;67.15;;;8.60;99.90;;;;;;5051756;28;20032;-77
2020/12/24 07:54:28;;;;;;;107.70;71.57;;;8.70;99.90;;;;;;5051455;28;20029;-77
2020/12/24 07:56:54;;;;;;;92.65;64.18;;;8.70;99.90;;;;;;5051790;28;20119;-77
2020/12/24 07:59:21;;;;;;;95.60;61.53;;;8.80;99.90;;;;;;5051721;28;20024;-77
2020/12/24 08:01:47;;;;;;;88.32;57.15;;;8.80;99.90;;;;;;5051576;28;20124;-77
2020/12/24 08:04:13;;;;;;;110.20;64.50;;;8.90;99.90;;;;;;5050541;28;20029;-77
2020/12/24 08:06:39;;;;;;;105.65;64.18;;;9.00;99.90;;;;;;5054418;28;20029;-77
2020/12/24 08:09:16;;;;;;;129.93;63.00;;;9.00;99.90;;;;;;5056141;28;20047;-77
2020/12/24 08:12:00;;;;;;;111.78;60.33;;;9.00;99.90;;;;;;5055969;28;20028;-77
2020/12/24 08:14:30;;;;;;;98.93;59.55;;;9.10;99.90;;;;;;5056103;28;20029;-77
2020/12/24 08:17:20;;;;;;;106.65;65.10;;;9.20;99.90;;;;;;5055708;28;20383;-77
2020/12/24 08:19:55;;;;;;;137.32;79.18;;;9.30;99.90;;;;;;5055443;28;20037;-77
2020/12/24 08:22:34;;;;;;;122.38;74.68;;;9.40;99.90;;;;;;5054891;28;20032;-77
2020/12/24 08:25:00;;;;;;;104.60;63.22;;;9.50;99.90;;;;;;5055054;28;20036;-77
2020/12/24 08:27:27;;;;;;;93.82;57.70;;;9.50;99.90;;;;;;5055326;28;20021;-77
2020/12/24 08:29:54;;;;;;;94.70;57.22;;;9.60;99.90;;;;;;5055921;28;20075;-77
2020/12/24 08:32:20;;;;;;;86.63;55.55;;;9.70;99.90;;;;;;5054149;28;20414;-77
2020/12/24 08:34:46;;;;;;;120.55;68.22;;;9.70;99.90;;;;;;5054861;28;20067;-78
2020/12/24 08:37:12;;;;;;;138.60;78.63;;;9.80;99.90;;;;;;5056101;28;20461;-77
2020/12/24 08:39:37;;;;;;;163.95;92.72;;;9.90;99.90;;;;;;5055299;28;20506;-76
2020/12/24 08:42:06;;;;;;;122.03;68.05;;;10.00;99.90;;;;;;5055161;28;20025;-76
2020/12/24 08:44:32;;;;;;;150.90;68.63;;;10.10;99.90;;;;;;5053039;28;20032;-74
2020/12/24 08:47:06;;;;;;;1999.90;999.90;;;10.20;99.90;;;;;;5054494;28;20032;-74
2020/12/24 08:49:38;;;;;;;1999.90;999.90;;;10.40;99.90;;;;;;5052797;28;20056;-75
2020/12/24 08:52:20;;;;;;;1999.90;999.90;;;10.60;99.90;;;;;;5053899;28;20380;-76
2020/12/24 08:55:00;;;;;;;1999.90;999.90;;;10.80;99.90;;;;;;5050567;28;20365;-75
2020/12/24 08:57:27;;;;;;;1999.90;999.90;;;11.10;99.90;;;;;;5053309;28;20108;-75
2020/12/24 08:59:56;;;;;;;1999.90;999.90;;;11.40;99.90;;;;;;5053440;28;20051;-75
2020/12/24 09:02:31;;;;;;;1999.90;999.90;;;11.70;99.90;;;;;;5053868;28;20025;-75
2020/12/24 09:04:59;;;;;;;1653.60;968.42;;;11.90;99.90;;;;;;5053532;28;20045;-75
2020/12/24 09:07:30;;;;;;;1464.88;922.95;;;12.40;99.90;;;;;;5053481;28;20056;-74
2020/12/24 09:10:09;;;;;;;1320.35;884.15;;;12.80;99.90;;;;;;5053704;28;20021;-74
2020/12/24 09:12:37;;;;;;;930.13;729.03;;;13.40;99.90;;;;;;5053597;28;20068;-75
2020/12/24 09:15:14;;;;;;;698.22;555.22;;;13.80;99.90;;;;;;5053518;28;20444;-77
2020/12/24 09:17:57;;;;;;;383.42;276.52;;;13.40;99.90;;;;;;5054133;28;20033;-76
2020/12/24 09:20:29;;;;;;;404.23;287.75;;;12.70;99.90;;;;;;5053903;28;20112;-76
2020/12/24 09:22:57;;;;;;;366.92;252.50;;;12.20;99.90;;;;;;5053880;28;20048;-76
2020/12/24 09:25:38;;;;;;;571.20;464.05;;;11.90;99.90;;;;;;5053714;28;20036;-76
2020/12/24 09:28:04;;;;;;;;;;;12.50;99.90;;;;;;5053094;28;20033;-76
2020/12/24 09:30:31;;;;;;;332.77;202.15;;;12.10;99.90;;;;;;5053098;28;19905;-77
2020/12/24 09:33:01;;;;;;;324.92;212.35;;;11.90;99.90;;;;;;5034304;28;20099;-75
2020/12/24 09:35:28;;;;;;;429.23;329.65;;;11.80;99.90;;;;;;5033217;28;20021;-75
2020/12/24 09:37:55;;;;;;;335.08;227.68;;;13.80;99.90;;;;;;5033176;28;20041;-75
2020/12/24 09:40:22;;;;;;;309.00;204.75;;;15.20;99.90;;;;;;5033012;28;20029;-75
2020/12/24 09:42:48;;;;;;;290.35;199.82;;;16.40;99.90;;;;;;5031777;28;20026;-75
2020/12/24 09:45:15;;;;;;;275.90;183.60;;;17.50;99.90;;;;;;5032812;28;20497;-76
2020/12/24 09:47:44;;;;;;;208.00;137.88;;;18.30;96.30;;;;;;5033716;28;20045;-77
2020/12/24 09:50:10;;;;;;;217.75;142.45;;;17.10;96.80;;;;;;5033638;28;20030;-77
2020/12/24 09:52:36;;;;;;;208.55;133.77;;;16.00;99.90;;;;;;5051616;28;20376;-77
2020/12/24 09:55:03;;;;;;;234.15;144.68;;;15.30;99.90;;;;;;5054290;28;20096;-77
2020/12/24 09:57:29;;;;;;;280.95;174.55;;;14.70;99.90;;;;;;5052533;28;20469;-77
2020/12/24 09:59:55;;;;;;;285.90;174.35;;;14.30;99.90;;;;;;5053624;28;20132;-76
2020/12/24 10:02:21;;;;;;;483.88;274.25;;;14.00;99.90;;;;;;5053477;28;20087;-76
2020/12/24 10:04:47;;;;;;;261.45;143.32;;;13.70;99.90;;;;;;5053211;28;20021;-76
2020/12/24 10:07:13;;;;;;;253.02;144.63;;;16.20;99.90;;;;;;5052022;28;20029;-76
2020/12/24 10:09:38;;;;;;;200.27;124.38;;;17.70;99.90;;;;;;5052769;28;20028;-76
2020/12/24 10:12:04;;;;;;;282.73;157.95;;;18.50;99.50;;;;;;5052500;28;20029;-76
2020/12/24 10:14:30;;;;;;;380.00;201.35;;;19.00;96.30;;;;;;5052757;28;20023;-76
2020/12/24 10:16:56;;;;;;;485.83;258.08;;;19.20;94.80;;;;;;5052753;28;20025;-76
2020/12/24 10:19:22;;;;;;;522.38;284.55;;;19.20;93.70;;;;;;5052511;28;20112;-76
2020/12/24 10:21:47;;;;;;;406.20;214.85;;;19.30;92.60;;;;;;5052246;28;20067;-76
2020/12/24 10:24:13;;;;;;;364.33;188.77;;;19.20;91.90;;;;;;5052005;28;20052;-76
2020/12/24 10:26:39;;;;;;;306.63;159.13;;;19.10;91.70;;;;;;5052303;28;20068;-76
2020/12/24 10:29:06;;;;;;;130.77;73.50;;;19.00;91.10;;;;;;5048389;28;20052;-76
2020/12/24 10:31:31;;;;;;;65.95;38.17;;;18.40;87.90;;;;;;5053241;28;20021;-77
2020/12/24 10:33:57;;;;;;;70.95;36.80;;;17.30;88.80;;;;;;5053190;28;20558;-77
2020/12/24 10:36:24;;;;;;;77.85;41.00;;;16.50;91.40;;;;;;5052768;28;20033;-78
2020/12/24 10:38:51;;;;;;;63.80;35.88;;;16.00;94.00;;;;;;5054335;28;20341;-77
2020/12/24 10:41:17;;;;;;;61.50;37.53;;;15.60;96.30;;;;;;5069491;28;20120;-78
2020/12/24 10:43:44;;;;;;;68.80;42.35;;;15.30;98.40;;;;;;5052567;28;20029;-77
2020/12/24 10:46:21;;;;;;;62.45;41.17;;;15.00;98.90;;;;;;5053370;28;20025;-77
2020/12/24 10:48:47;;;;;;;51.75;31.73;;;14.90;99.30;;;;;;5053138;28;20605;-76
2020/12/24 10:51:17;;;;;;;53.85;35.97;;;14.90;99.90;;;;;;5052654;28;20388;-77
2020/12/24 10:53:43;;;;;;;91.03;57.60;;;14.90;99.90;;;;;;5052841;28;20769;-77
2020/12/24 10:56:13;;;;;;;117.53;65.85;;;14.80;99.90;;;;;;5068511;28;20029;-78
2020/12/24 10:58:41;;;;;;;96.88;49.72;;;14.70;99.90;;;;;;5052941;28;20040;-78
2020/12/24 11:01:11;;;;;;;95.00;49.30;;;14.70;99.90;;;;;;5085232;28;20392;-78
2020/12/24 11:03:37;;;;;;;;;;;14.70;99.90;;;;;;5085677;28;20033;-78
2020/12/24 11:06:07;;;;;;;26.83;14.23;;;14.80;99.90;;;;;;5052628;28;20359;-78
2020/12/24 11:08:34;;;;;;;51.75;19.63;;;14.90;99.90;;;;;;5051994;28;20021;-77
2020/12/24 11:11:00;;;;;;;57.53;21.35;;;15.00;99.90;;;;;;5051832;28;20029;-77
2020/12/24 11:13:27;;;;;;;39.67;19.30;;;15.30;99.90;;;;;;5052029;28;20429;-77
2020/12/24 11:15:53;;;;;;;34.80;18.65;;;15.30;99.90;;;;;;5084426;28;20028;-78
2020/12/24 11:18:19;;;;;;;56.33;19.23;;;15.20;99.90;;;;;;5067191;28;20032;-76
2020/12/24 11:20:45;;;;;;;30.45;16.10;;;15.40;99.90;;;;;;5051758;28;20079;-78
2020/12/24 11:23:11;;;;;;;42.30;17.20;;;15.50;99.90;;;;;;5067756;28;20565;-78
2020/12/24 11:25:37;;;;;;;25.83;13.53;;;18.50;99.90;;;;;;5052183;28;20033;-78
2020/12/24 11:28:03;;;;;;;26.98;14.75;;;19.50;92.80;;;;;;5052591;28;20035;-78
2020/12/24 11:30:29;;;;;;;22.08;13.98;;;20.10;89.10;;;;;;5052820;28;20025;-78
2020/12/24 11:32:55;;;;;;;23.13;15.90;;;20.40;84.80;;;;;;5052791;28;20078;-78
2020/12/24 11:35:22;;;;;;;20.38;13.98;;;20.60;82.20;;;;;;5066729;28;20388;-78
2020/12/24 11:37:48;;;;;;;20.00;12.55;;;20.70;81.10;;;;;;5051788;28;20543;-78
2020/12/24 11:40:14;;;;;;;14.98;11.27;;;20.80;79.90;;;;;;5063750;28;20111;-78
2020/12/24 11:42:40;;;;;;;15.32;8.55;;;20.70;79.20;;;;;;5051621;28;20045;-78
2020/12/24 11:45:06;;;;;;;12.32;8.95;;;20.60;78.30;;;;;;5051045;28;20060;-78
2020/12/24 11:47:34;;;;;;;13.95;9.65;;;20.50;77.90;;;;;;5051351;28;20031;-78
2020/12/24 11:50:01;;;;;;;17.02;9.77;;;20.40;77.60;;;;;;5050722;28;20020;-78
2020/12/24 11:52:28;;;;;;;22.88;12.40;;;20.30;78.00;;;;;;5050317;28;20025;-78
2020/12/24 11:54:54;;;;;;;97.13;49.25;;;20.30;79.00;;;;;;5047798;28;20021;-77
2020/12/24 11:57:19;;;;;;;165.52;79.13;;;20.30;81.60;;;;;;5050423;28;20476;-76
2020/12/24 11:59:46;;;;;;;201.52;89.65;;;20.00;84.50;;;;;;5048693;28;20102;-78
2020/12/24 12:02:11;;;;;;;154.20;78.00;;;19.70;86.00;;;;;;5050490;28;20507;-78
2020/12/24 12:04:37;;;;;;;129.48;65.20;;;18.80;91.30;;;;;;5051592;28;20033;-78
2020/12/24 12:07:03;;;;;;;112.65;63.08;;;18.00;94.60;;;;;;5051529;28;20128;-78
2020/12/24 12:09:29;;;;;;;117.03;65.47;;;17.50;98.60;;;;;;5050324;28;20358;-78
2020/12/24 12:11:54;;;;;;;65.35;40.17;;;17.00;99.90;;;;;;5050295;28;20074;-78
2020/12/24 12:14:20;;;;;;;40.00;25.35;;;16.80;99.90;;;;;;5051673;28;20024;-78
2020/12/24 12:16:49;;;;;;;31.13;18.65;;;16.60;99.40;;;;;;5052348;28;20108;-78
2020/12/24 12:19:15;;;;;;;28.30;14.00;;;16.60;99.60;;;;;;5052296;28;20017;-78
2020/12/24 12:21:41;;;;;;;26.23;14.93;;;16.70;98.30;;;;;;5052096;28;20380;-78
2020/12/24 12:24:07;;;;;;;32.25;15.35;;;16.70;98.80;;;;;;5052047;28;20081;-78
2020/12/24 12:26:33;;;;;;;16.13;10.57;;;16.70;96.40;;;;;;5050114;28;20033;-78
2020/12/24 12:28:58;;;;;;;15.18;9.32;;;16.70;96.40;;;;;;5050903;28;20033;-78
2020/12/24 12:31:25;;;;;;;27.98;12.48;;;16.60;96.30;;;;;;5049486;28;20499;-78
2020/12/24 12:33:53;;;;;;;22.58;12.13;;;16.70;96.20;;;;;;5051042;28;20017;-79